Time;durP1;ratioP1;P1;durP2;ratioP2;P2;SDS_P1;SDS_P2;PMS_P1;PMS_P2;Temp;Humidity;BMP_temperature;BMP_pressure;BME280_temperature;BME280_humidity;BME280_pressure;Samples;Min_cycle;Max_cycle;Signal;HPM_P1;HPM_P2
2023/01/02 00:03:47;;;;;;;36.30;18.90;;;;;;;10.40;68.29;100817.75;7686946;32;35056;-85
2023/01/02 00:08:04;;;;;;;37.42;19.45;;;;;;;10.57;67.38;100800.56;7711427;32;39999;-85
2023/01/02 00:12:20;;;;;;;44.08;20.77;;;;;;;10.46;68.03;100802.28;7711721;32;40798;-85
2023/01/02 00:16:37;;;;;;;47.13;22.17;;;;;;;10.52;67.98;100801.31;7694767;32;38027;-85
2023/01/02 00:20:53;;;;;;;40.58;21.95;;;;;;;10.35;68.72;100814.94;7685104;32;38255;-84
2023/01/02 00:25:09;;;;;;;45.17;21.73;;;;;;;10.63;67.64;100807.78;7685760;32;39006;-85
2023/01/02 00:29:26;;;;;;;42.17;20.60;;;;;;;10.20;69.48;100799.09;7693806;32;40860;-84
2023/01/02 00:33:42;;;;;;;42.45;20.77;;;;;;;10.55;67.82;100802.72;7698215;32;38787;-83
2023/01/02 00:37:59;;;;;;;46.80;21.80;;;;;;;10.55;68.04;100814.44;7711572;32;36042;-84
2023/01/02 00:42:15;;;;;;;47.70;23.27;;;;;;;10.50;68.59;100817.94;7711927;32;37551;-84
2023/01/02 00:46:31;;;;;;;49.40;21.98;;;;;;;10.76;67.51;100821.06;7710998;32;39694;-83
2023/01/02 00:50:48;;;;;;;47.97;22.60;;;;;;;10.57;68.08;100816.91;7701472;32;37382;-83
2023/01/02 00:55:05;;;;;;;46.92;21.45;;;;;;;10.41;69.08;100813.13;7710581;32;37234;-84
2023/01/02 00:59:21;;;;;;;51.40;23.02;;;;;;;10.79;67.77;100822.47;7710029;32;38987;-85
2023/01/02 01:03:37;;;;;;;50.45;22.83;;;;;;;10.44;68.89;100818.91;7710545;32;39657;-84
2023/01/02 01:07:54;;;;;;;54.40;23.10;;;;;;;10.59;68.86;100809.31;7710941;32;38665;-84
2023/01/02 01:12:11;;;;;;;47.08;22.75;;;;;;;10.49;69.12;100807.25;7711023;32;37161;-84
2023/01/02 01:16:27;;;;;;;50.25;23.48;;;;;;;10.57;68.82;100803.28;7694698;32;40053;-84
2023/01/02 01:20:43;;;;;;;46.35;22.05;;;;;;;10.35;69.63;100812.22;7684455;32;39746;-85
2023/01/02 01:25:00;;;;;;;53.30;22.77;;;;;;;10.46;69.23;100800.38;7683842;32;38316;-85
2023/01/02 01:29:16;;;;;;;48.85;23.38;;;;;;;10.47;69.03;100796.59;7685002;32;37861;-85
2023/01/02 01:33:32;;;;;;;54.83;23.00;;;;;;;10.46;69.22;100786.75;7696470;32;40072;-85
2023/01/02 01:37:49;;;;;;;60.67;23.27;;;;;;;10.44;69.27;100786.19;7684065;32;39931;-84
2023/01/02 01:42:12;;;;;;;47.45;23.15;;;;;;;9.86;71.68;100779.91;7701591;32;37984;-85
2023/01/02 01:46:46;;;;;;;42.97;20.95;;;;;;;10.36;69.96;100763.97;7699199;32;37286;-85
2023/01/02 01:51:02;;;;;;;;;;;;;;;10.27;70.79;100758.06;7694753;32;39082;-84
2023/01/02 01:55:45;;;;;;;49.58;19.75;;;;;;;10.44;69.47;100753.47;7693558;32;40180;-83
2023/01/02 02:00:03;;;;;;;43.92;20.80;;;;;;;10.49;68.89;100745.37;7685371;32;37749;-85
2023/01/02 02:04:20;;;;;;;46.80;20.85;;;;;;;10.34;69.68;100743.22;7707126;32;37925;-85
2023/01/02 02:09:00;;;;;;;49.25;22.20;;;;;;;10.08;70.67;100741.91;7708459;32;40052;-85
2023/01/02 02:13:17;;;;;;;46.35;20.90;;;;;;;10.34;70.00;100742.41;7684927;32;40086;-84
2023/01/02 02:17:55;;;;;;;43.67;22.30;;;;;;;9.99;71.42;100746.13;7704546;32;37953;-85
2023/01/02 02:22:27;;;;;;;50.28;21.48;;;;;;;10.09;71.30;100738.13;7691479;32;37872;-84
2023/01/02 02:27:21;;;;;;;45.60;21.62;;;;;;;10.13;71.17;100742.00;7682832;32;40367;-85
2023/01/02 02:32:15;;;;;;;45.05;21.65;;;;;;;10.17;71.27;100730.62;7690108;32;40179;-84
2023/01/02 02:36:45;;;;;;;52.92;22.80;;;;;;;10.09;71.86;100740.00;7700778;32;37794;-84
2023/01/02 02:41:07;;;;;;;45.90;21.23;;;;;;;10.12;71.84;100736.81;7690841;32;37891;-83
2023/01/02 02:45:58;;;;;;;50.15;23.65;;;;;;;10.09;72.19;100731.84;7708758;32;39842;-85
2023/01/02 02:50:30;;;;;;;52.95;22.85;;;;;;;10.37;71.12;100725.56;7706863;32;39887;-84
2023/01/02 02:59:24;;;;;;;62.53;23.00;;;;;;;10.26;71.50;100735.44;7691009;32;37692;-84
2023/01/02 03:03:40;;;;;;;52.13;22.48;;;;;;;9.96;72.38;100741.16;7706862;32;40000;-84
2023/01/02 03:08:08;;;;;;;49.50;22.17;;;;;;;10.14;72.05;100730.06;7692300;32;39989;-84
2023/01/02 03:12:51;;;;;;;48.47;22.20;;;;;;;10.04;72.88;100739.94;7699947;32;37981;-83
2023/01/02 03:17:40;;;;;;;49.93;22.93;;;;;;;9.92;73.05;100729.09;7688070;32;37498;-83
2023/01/02 03:22:07;;;;;;;44.90;21.77;;;;;;;9.99;72.98;100718.87;7681123;32;39192;-84
2023/01/02 03:26:29;;;;;;;42.95;21.58;;;;;;;9.84;72.90;100713.16;7686522;32;40608;-85
2023/01/02 03:30:50;;;;;;;46.10;20.98;;;;;;;10.09;72.16;100701.87;7692658;32;37916;-84
2023/01/02 03:35:10;;;;;;;53.13;22.85;;;;;;;10.04;72.38;100699.91;7710537;32;38113;-84
2023/01/02 03:39:29;;;;;;;46.75;20.95;;;;;;;9.82;73.22;100704.41;7694645;32;39225;-84
2023/01/02 03:43:47;;;;;;;45.47;21.90;;;;;;;9.98;72.87;100695.44;7696220;32;40109;-84
2023/01/02 03:48:42;;;;;;;44.67;21.12;;;;;;;9.89;73.06;100696.91;7711535;32;37822;-85
2023/01/02 03:52:59;;;;;;;50.35;21.42;;;;;;;10.21;71.61;100699.06;7699476;32;37150;-85
2023/01/02 03:57:28;;;;;;;38.42;19.70;;;;;;;10.27;71.25;100689.91;7685004;32;39475;-83
2023/01/02 04:02:09;;;;;;;42.40;21.48;;;;;;;10.05;72.20;100690.63;7685345;32;40111;-83
2023/01/02 04:06:30;;;;;;;44.42;20.42;;;;;;;10.12;71.89;100677.72;7706523;32;37832;-83
2023/01/02 04:10:48;;;;;;;39.33;18.92;;;;;;;10.12;71.85;100680.44;7697065;32;37730;-84
2023/01/02 04:15:16;;;;;;;43.85;22.23;;;;;;;10.13;71.61;100687.50;7691412;32;39912;-85
2023/01/02 04:19:47;;;;;;;52.90;22.33;;;;;;;9.82;73.00;100696.25;7710993;32;39925;-84
2023/01/02 04:24:14;;;;;;;53.35;22.08;;;;;;;10.12;72.07;100685.03;7710267;32;38687;-85
2023/01/02 04:28:33;;;;;;;53.30;22.27;;;;;;;10.34;71.37;100682.44;7705596;32;37126;-86
2023/01/02 04:32:50;;;;;;;43.85;21.12;;;;;;;10.22;71.49;100682.47;7685776;32;39044;-85
2023/01/02 04:37:06;;;;;;;55.42;21.83;;;;;;;10.12;71.71;100688.59;7684426;32;40224;-85
2023/01/02 04:41:27;;;;;;;48.97;22.65;;;;;;;10.24;71.49;100696.69;7697148;32;38863;-85
2023/01/02 04:45:43;;;;;;;45.15;21.77;;;;;;;10.17;71.66;100698.75;7683699;32;36891;-84
2023/01/02 04:50:00;;;;;;;51.70;21.37;;;;;;;10.42;70.65;100697.56;7685367;32;39487;-84
2023/01/02 04:54:16;;;;;;;43.80;20.37;;;;;;;10.05;71.81;100689.81;7684795;32;40858;-85
2023/01/02 04:58:32;;;;;;;45.70;20.73;;;;;;;9.90;72.62;100704.00;7684652;32;38169;-85
2023/01/02 05:02:48;;;;;;;42.45;21.70;;;;;;;10.12;71.45;100712.28;7685254;32;37180;-85
2023/01/02 05:07:05;;;;;;;44.47;19.48;;;;;;;10.36;70.81;100717.63;7691418;32;39340;-85
2023/01/02 05:11:21;;;;;;;39.88;19.95;;;;;;;10.22;71.12;100701.56;7704034;32;39696;-84
2023/01/02 05:15:38;;;;;;;42.75;19.83;;;;;;;10.14;71.45;100701.97;7693395;32;38011;-85
2023/01/02 05:19:54;;;;;;;35.45;18.15;;;;;;;10.28;71.13;100699.75;7695981;32;37054;-85
2023/01/02 05:24:10;;;;;;;45.83;19.00;;;;;;;10.43;70.41;100708.19;7684447;32;39376;-85
2023/01/02 05:28:27;;;;;;;39.88;20.17;;;;;;;10.30;70.66;100705.78;7690796;32;40058;-85
2023/01/02 05:32:50;;;;;;;40.50;19.42;;;;;;;10.25;70.65;100695.63;7709338;32;38061;-85
2023/01/02 05:37:06;;;;;;;38.63;19.00;;;;;;;10.04;71.59;100704.53;7710250;32;37102;-85
2023/01/02 05:41:22;;;;;;;42.90;21.05;;;;;;;10.15;71.04;100700.91;7703106;32;39426;-85
2023/01/02 05:45:39;;;;;;;40.33;19.67;;;;;;;10.17;70.65;100709.66;7697100;32;40755;-85
2023/01/02 05:49:55;;;;;;;43.05;19.60;;;;;;;9.93;71.79;100706.22;7709985;32;36465;-85
2023/01/02 05:54:14;;;;;;;40.53;19.87;;;;;;;10.07;71.15;100713.03;7693228;32;37779;-84
2023/01/02 05:58:33;;;;;;;41.67;20.75;;;;;;;10.17;70.58;100703.38;7683563;32;39324;-85
2023/01/02 06:02:49;;;;;;;41.37;19.42;;;;;;;9.85;71.15;100706.62;7682409;32;40241;-84
2023/01/02 06:07:05;;;;;;;40.63;19.45;;;;;;;10.26;70.17;100710.06;7683369;32;38485;-84
2023/01/02 06:11:22;;;;;;;40.83;19.50;;;;;;;9.87;70.52;100708.03;7690532;32;37949;-85
2023/01/02 06:15:38;;;;;;;41.58;20.05;;;;;;;10.12;70.15;100704.09;7705335;32;38988;-84
2023/01/02 06:19:54;;;;;;;41.42;19.48;;;;;;;9.94;70.60;100689.66;7695666;32;38232;-85
2023/01/02 06:24:11;;;;;;;45.58;20.37;;;;;;;9.82;71.38;100697.06;7690219;32;38863;-85
2023/01/02 06:28:27;;;;;;;44.50;20.90;;;;;;;10.00;70.57;100697.91;7687225;32;37913;-85
2023/01/02 06:32:43;;;;;;;43.45;20.60;;;;;;;9.73;71.91;100702.06;7687050;32;39931;-85
2023/01/02 06:37:00;;;;;;;50.35;19.73;;;;;;;9.66;71.95;100698.69;7699880;32;40062;-85
2023/01/02 06:41:24;;;;;;;42.22;20.15;;;;;;;9.62;71.83;100697.50;7712454;32;38679;-85
2023/01/02 06:45:40;;;;;;;43.28;20.42;;;;;;;9.70;72.01;100699.00;7711497;32;36777;-86
2023/01/02 06:49:56;;;;;;;45.75;22.50;;;;;;;9.70;72.20;100697.09;7700894;32;39346;-86
2023/01/02 06:54:13;;;;;;;40.30;19.80;;;;;;;9.88;71.58;100695.25;7686042;32;39896;-85
2023/01/02 06:58:31;;;;;;;49.70;21.33;;;;;;;9.90;71.12;100702.13;7686872;32;39070;-85
2023/01/02 07:02:47;;;;;;;39.40;19.48;;;;;;;10.00;70.95;100706.91;7697319;32;36245;-84
2023/01/02 07:07:04;;;;;;;45.97;19.80;;;;;;;9.92;71.35;100713.59;7684728;32;40036;-84
2023/01/02 07:11:23;;;;;;;43.65;20.67;;;;;;;9.92;71.22;100707.31;7685873;32;40890;-84
2023/01/02 07:15:39;;;;;;;50.85;21.65;;;;;;;10.02;70.86;100715.69;7691145;32;39021;-84
2023/01/02 07:19:55;;;;;;;48.75;20.98;;;;;;;9.99;70.67;100727.06;7703081;32;36946;-83
2023/01/02 07:24:17;;;;;;;46.90;21.90;;;;;;;9.90;71.38;100731.22;7709283;32;39250;-84
2023/01/02 07:28:34;;;;;;;46.40;20.88;;;;;;;10.21;70.39;100723.59;7694553;32;39914;-84
2023/01/02 07:32:55;;;;;;;48.00;19.83;;;;;;;10.10;70.55;100730.78;7699351;32;38178;-75
2023/01/02 07:37:11;;;;;;;41.80;19.87;;;;;;;10.03;72.46;100735.56;7686123;32;37927;-86
2023/01/02 07:41:27;;;;;;;42.92;20.35;;;;;;;10.09;73.64;100723.66;7685642;32;39889;-82
2023/01/02 07:45:43;;;;;;;46.72;20.05;;;;;;;10.39;71.39;100719.84;7685619;32;39766;-81
2023/01/02 07:50:08;;;;;;;38.45;19.12;;;;;;;10.08;70.78;100720.12;7693944;32;38628;-83
2023/01/02 07:54:24;;;;;;;41.72;19.62;;;;;;;10.40;69.67;100722.34;7700716;32;37133;-84
2023/01/02 07:58:40;;;;;;;41.37;19.90;;;;;;;10.23;70.42;100726.94;7692383;32;39358;-83
2023/01/02 08:02:57;;;;;;;38.83;18.67;;;;;;;10.04;70.84;100727.16;7699518;32;40703;-84
2023/01/02 08:07:13;;;;;;;42.38;20.08;;;;;;;10.30;69.97;100724.87;7704430;32;39271;-84
2023/01/02 08:11:29;;;;;;;41.15;20.33;;;;;;;10.15;70.54;100712.59;7698616;32;36941;-84
2023/01/02 08:15:45;;;;;;;41.67;20.50;;;;;;;10.29;70.07;100720.47;7694872;32;39204;-84
2023/01/02 08:20:02;;;;;;;47.92;21.48;;;;;;;10.29;70.11;100712.28;7690958;32;39875;-84
2023/01/02 08:24:23;;;;;;;41.03;20.90;;;;;;;9.97;70.85;100712.84;7697788;32;37997;-83
2023/01/02 08:28:40;;;;;;;54.08;21.75;;;;;;;10.34;70.10;100720.59;7693516;32;38049;-82
2023/01/02 08:32:56;;;;;;;45.35;21.20;;;;;;;10.19;70.65;100723.03;7689866;32;39285;-84
2023/01/02 08:37:13;;;;;;;51.47;21.40;;;;;;;10.27;70.60;100726.16;7693103;32;40025;-84
2023/01/02 08:41:40;;;;;;;47.42;20.30;;;;;;;10.07;71.03;100717.63;7696259;32;38761;-82
2023/01/02 08:45:56;;;;;;;60.95;20.92;;;;;;;10.19;71.19;100718.37;7695704;32;38068;-83
2023/01/02 08:50:12;;;;;;;47.00;20.50;;;;;;;10.06;71.33;100718.72;7696685;32;39354;-83
2023/01/02 08:54:29;;;;;;;43.50;20.83;;;;;;;10.04;71.35;100712.72;7705916;32;39958;-83
2023/01/02 08:58:50;;;;;;;47.38;21.85;;;;;;;10.04;71.76;100726.31;7693801;32;37759;-83
2023/01/02 09:03:10;;;;;;;51.30;21.40;;;;;;;10.20;71.18;100722.78;7706053;32;36904;-84
2023/01/02 09:07:27;;;;;;;50.33;22.25;;;;;;;9.83;72.41;100744.16;7711319;32;39341;-85
2023/01/02 09:11:48;;;;;;;57.92;22.50;;;;;;;10.17;71.24;100745.06;7711322;32;39673;-84
2023/01/02 09:16:07;;;;;;;53.67;22.35;;;;;;;10.13;70.98;100744.72;7707816;32;38743;-84
2023/01/02 09:20:24;;;;;;;56.95;23.17;;;;;;;10.06;71.50;100725.00;7686718;32;37115;-84
2023/01/02 09:24:42;;;;;;;50.30;22.87;;;;;;;9.91;71.75;100720.09;7688294;32;38188;-83
2023/01/02 09:28:58;;;;;;;47.85;22.95;;;;;;;10.42;70.19;100722.09;7700585;32;40591;-83
2023/01/02 09:33:15;;;;;;;52.45;23.52;;;;;;;10.39;70.09;100707.03;7698479;32;38229;-84
2023/01/02 09:37:31;;;;;;;54.22;24.35;;;;;;;10.45;70.07;100700.63;7692938;32;37143;-82
2023/01/02 09:41:53;;;;;;;49.42;23.10;;;;;;;10.31;70.38;100704.69;7684144;32;39208;-81
2023/01/02 09:46:19;;;;;;;52.55;23.23;;;;;;;10.52;69.23;100706.72;7694992;32;40082;-82
2023/01/02 09:50:35;;;;;;;47.65;22.98;;;;;;;10.26;69.52;100705.47;7693757;32;38834;-82
2023/01/02 09:54:51;;;;;;;52.60;23.95;;;;;;;10.43;69.00;100697.28;7689408;32;35783;-82
2023/01/02 09:59:22;;;;;;;47.75;22.73;;;;;;;10.15;69.52;100690.81;7689159;32;39028;-81
2023/01/02 10:04:09;;;;;;;43.45;23.02;;;;;;;10.26;68.88;100688.25;7695217;32;39985;-82
2023/01/02 10:08:40;;;;;;;47.38;23.02;;;;;;;10.36;68.51;100691.19;7700401;32;37898;-82
2023/01/02 10:13:15;;;;;;;48.90;25.15;;;;;;;10.10;69.07;100695.34;7685769;32;37907;-84
2023/01/02 10:17:40;;;;;;;45.47;21.95;;;;;;;10.13;69.28;100692.97;7685206;32;39051;-83
2023/01/02 10:21:59;;;;;;;44.28;21.98;;;;;;;10.30;68.77;100686.72;7683392;32;40248;-82
2023/01/02 10:26:20;;;;;;;40.00;21.33;;;;;;;10.23;69.04;100683.31;7681807;32;37855;-83
2023/01/02 10:30:42;;;;;;;49.88;22.98;;;;;;;10.52;67.99;100668.53;7681908;32;37137;-83
2023/01/02 10:35:08;;;;;;;45.67;22.80;;;;;;;10.52;67.83;100662.28;7681778;32;39173;-81
2023/01/02 10:39:26;;;;;;;51.60;23.05;;;;;;;10.26;69.28;100650.09;7681394;32;39899;-82
2023/01/02 10:43:46;;;;;;;44.03;21.98;;;;;;;10.26;69.20;100648.22;7690574;32;37052;-83
2023/01/02 10:48:02;;;;;;;51.53;24.65;;;;;;;10.56;68.54;100646.25;7682377;32;37182;-83
2023/01/02 10:52:28;;;;;;;46.53;23.92;;;;;;;10.28;69.65;100645.25;7682523;32;39087;-84
2023/01/02 10:56:48;;;;;;;45.42;22.52;;;;;;;10.68;68.80;100634.13;7694084;32;39784;-85
2023/01/02 11:01:17;;;;;;;50.33;23.80;;;;;;;10.40;69.32;100624.22;7708021;32;38254;-85
2023/01/02 11:05:42;;;;;;;46.70;21.55;;;;;;;10.58;68.81;100617.63;7708883;32;37094;-85
2023/01/02 11:09:58;;;;;;;46.72;22.67;;;;;;;10.80;68.52;100614.94;7709310;32;39188;-86
2023/01/02 11:14:14;;;;;;;46.08;23.52;;;;;;;10.78;68.79;100611.62;7695152;32;40803;-83
2023/01/02 11:18:33;;;;;;;52.25;25.73;;;;;;;10.93;68.10;100605.53;7709248;32;37990;-87
2023/01/02 11:22:50;;;;;;;47.45;23.27;;;;;;;11.05;67.80;100595.31;7701682;32;37721;-83
2023/01/02 11:27:08;;;;;;;52.65;24.60;;;;;;;10.97;67.87;100586.75;7685884;32;39234;-83
2023/01/02 11:31:24;;;;;;;55.80;26.60;;;;;;;10.89;67.94;100586.13;7711131;32;38113;-83
2023/01/02 11:36:04;;;;;;;50.33;25.25;;;;;;;10.95;67.67;100584.31;7709260;32;38082;-83
2023/01/02 11:40:31;;;;;;;48.50;24.15;;;;;;;10.82;68.08;100574.59;7714151;32;38008;-84
2023/01/02 11:45:02;;;;;;;43.60;22.25;;;;;;;10.60;69.03;100560.94;7691030;32;39019;-84
2023/01/02 11:49:28;;;;;;;47.28;21.75;;;;;;;10.65;69.71;100557.47;7709962;32;40024;-85
2023/01/02 11:53:47;;;;;;;40.28;19.87;;;;;;;11.06;68.73;100560.69;7712191;32;37988;-84
2023/01/02 11:58:15;;;;;;;46.67;20.48;;;;;;;11.16;67.83;100551.75;7703773;32;37018;-83
2023/01/02 12:02:44;;;;;;;39.97;19.27;;;;;;;11.33;67.36;100547.03;7686832;32;39237;-82
2023/01/02 12:07:21;;;;;;;41.28;21.05;;;;;;;11.39;67.45;100543.25;7685344;32;40888;-83
2023/01/02 12:11:46;;;;;;;48.10;21.30;;;;;;;11.73;66.81;100533.97;7685327;32;39279;-84
2023/01/02 12:16:12;;;;;;;38.88;20.55;;;;;;;11.76;66.10;100534.31;7684106;32;37263;-84
2023/01/02 12:20:39;;;;;;;44.20;21.80;;;;;;;11.54;66.36;100545.31;7684886;32;40118;-85
2023/01/02 12:25:05;;;;;;;42.03;21.60;;;;;;;11.91;64.84;100532.78;7696136;32;39937;-83
2023/01/02 12:29:53;;;;;;;48.35;23.08;;;;;;;11.77;65.36;100535.94;7712191;32;36795;-83
2023/01/02 12:34:24;;;;;;;47.88;23.23;;;;;;;11.85;64.39;100529.19;7696307;32;37900;-84
2023/01/02 12:38:59;;;;;;;44.33;21.77;;;;;;;11.57;65.34;100531.16;7699055;32;39251;-84
2023/01/02 12:43:24;;;;;;;45.00;22.15;;;;;;;11.52;65.50;100522.91;7684540;32;39703;-84
2023/01/02 12:48:11;;;;;;;48.95;22.48;;;;;;;11.35;65.99;100519.47;7692280;32;38015;-84
2023/01/02 12:53:03;;;;;;;41.65;20.85;;;;;;;11.40;65.89;100524.97;7702690;32;36968;-84
2023/01/02 12:57:54;;;;;;;37.53;19.60;;;;;;;11.25;66.17;100518.28;7708319;32;39194;-84
2023/01/02 13:02:48;;;;;;;44.30;19.98;;;;;;;11.23;66.17;100517.72;7709937;32;39979;-86
2023/01/02 13:07:10;;;;;;;;;;;;;;;11.12;66.43;100513.25;7710950;32;38838;-80
2023/01/02 13:11:49;;;;;;;38.58;20.33;;;;;;;11.05;70.03;100512.63;7711222;32;37568;-77
2023/01/02 13:16:11;;;;;;;38.08;19.85;;;;;;;11.22;69.14;100513.34;7698768;32;39083;-85
2023/01/02 13:21:10;;;;;;;41.10;19.83;;;;;;;11.50;65.29;100513.31;7710838;32;39951;-86
2023/01/02 13:25:29;;;;;;;40.70;19.52;;;;;;;11.42;65.32;100514.63;7709727;32;37997;-84
2023/01/02 13:29:45;;;;;;;32.13;19.67;;;;;;;11.43;65.57;100516.25;7711009;32;36948;-84
2023/01/02 13:34:17;;;;;;;38.70;19.73;;;;;;;11.38;65.82;100522.53;7708838;32;39165;-83
2023/01/02 13:38:38;;;;;;;44.03;22.92;;;;;;;11.63;64.86;100513.69;7684862;32;39666;-85
2023/01/02 13:42:58;;;;;;;54.00;28.48;;;;;;;11.19;65.78;100522.06;7684625;32;37902;-83
2023/01/02 13:47:27;;;;;;;48.80;25.12;;;;;;;11.39;65.46;100526.06;7675251;32;273295;-85
2023/01/02 13:51:58;;;;;;;51.25;26.23;;;;;;;11.55;64.89;100519.63;7684005;32;38984;-84
2023/01/02 13:56:22;;;;;;;51.63;25.00;;;;;;;11.52;64.54;100520.19;7683801;32;40717;-84
2023/01/02 14:00:39;;;;;;;;;;;;;;;11.27;65.06;100513.38;7682793;32;37918;-84
2023/01/02 14:04:55;;;;;;;54.90;25.58;;;;;;;11.34;64.74;100526.03;7685582;32;37259;-84
2023/01/02 14:09:17;;;;;;;47.72;24.27;;;;;;;11.25;65.34;100531.94;7706537;32;40070;-85
2023/01/02 14:13:50;;;;;;;49.08;24.80;;;;;;;11.20;65.49;100531.06;7695074;32;39712;-84
2023/01/02 14:18:10;;;;;;;48.00;24.40;;;;;;;11.32;65.10;100536.38;7700596;32;38167;-84
2023/01/02 14:22:26;;;;;;;47.45;23.20;;;;;;;11.15;65.62;100529.09;7709762;32;37232;-84
2023/01/02 14:26:49;;;;;;;49.92;23.45;;;;;;;11.05;65.99;100529.00;7709742;32;39972;-84
2023/01/02 14:31:17;;;;;;;55.33;25.55;;;;;;;11.16;65.51;100535.37;7710059;32;40638;-84
2023/01/02 14:35:37;;;;;;;50.58;24.05;;;;;;;11.07;65.64;100535.03;7709248;32;38637;-84
2023/01/02 14:39:53;;;;;;;52.65;24.85;;;;;;;11.07;65.44;100529.56;7709193;32;37068;-83
2023/01/02 14:44:10;;;;;;;56.50;26.25;;;;;;;10.80;66.14;100540.47;7710162;32;39229;-84
2023/01/02 14:48:34;;;;;;;54.08;25.30;;;;;;;10.73;66.38;100542.53;7711092;32;39979;-84
2023/01/02 14:53:08;;;;;;;51.95;26.70;;;;;;;11.01;65.62;100541.53;7712850;32;37931;-84
2023/01/02 14:57:27;;;;;;;;;;;;;;;10.61;66.86;100537.25;7711864;32;37238;-84
2023/01/02 15:01:50;;;;;;;58.92;25.25;;;;;;;10.28;67.94;100541.69;7712590;32;39447;-84
2023/01/02 15:06:18;;;;;;;;;;;;;;;10.50;67.32;100528.94;7711803;32;40850;-83
2023/01/02 15:10:55;;;;;;;53.20;25.17;;;;;;;10.24;68.38;100540.53;7712732;32;38463;-83
2023/01/02 15:15:12;;;;;;;59.97;27.13;;;;;;;10.34;67.79;100529.81;7712486;32;37145;-83
2023/01/02 15:19:31;;;;;;;63.13;27.62;;;;;;;10.24;68.27;100537.81;7712764;32;37021;-82
2023/01/02 15:23:48;;;;;;;55.88;27.55;;;;;;;10.25;68.27;100539.47;7712384;32;39949;-83
2023/01/02 15:28:27;;;;;;;52.83;27.45;;;;;;;10.49;67.55;100531.91;7712134;32;36967;-84
2023/01/02 15:32:48;;;;;;;50.72;25.45;;;;;;;10.45;67.43;100539.78;7711406;32;37794;-84
2023/01/02 15:37:06;;;;;;;53.87;25.12;;;;;;;10.18;69.09;100541.56;7702512;32;40025;-83
2023/01/02 15:41:22;;;;;;;51.42;25.67;;;;;;;10.47;67.93;100528.63;7712066;32;39440;-83
2023/01/02 15:45:57;;;;;;;56.50;27.17;;;;;;;10.13;69.12;100534.94;7711392;32;37699;-84
2023/01/02 15:50:18;;;;;;;52.53;25.58;;;;;;;10.28;68.71;100536.25;7711887;32;37045;-84
2023/01/02 15:54:35;;;;;;;55.33;26.77;;;;;;;10.44;68.19;100543.56;7711471;32;40096;-84
2023/01/02 15:58:52;;;;;;;54.35;26.85;;;;;;;10.18;69.44;100536.09;7710862;32;40124;-85
2023/01/02 16:03:10;;;;;;;56.95;26.12;;;;;;;10.38;68.36;100527.38;7701512;32;37982;-84
2023/01/02 16:07:27;;;;;;;60.12;27.37;;;;;;;10.47;68.03;100529.44;7710631;32;36173;-84
2023/01/02 16:11:49;;;;;;;58.15;28.30;;;;;;;10.14;68.87;100542.03;7710554;32;39952;-83
2023/01/02 16:16:06;;;;;;;58.77;27.93;;;;;;;10.06;69.47;100545.19;7710533;32;40110;-83
2023/01/02 16:20:31;;;;;;;61.50;28.98;;;;;;;9.48;72.01;100549.16;7710321;32;36113;-82
2023/01/02 16:25:04;;;;;;;56.60;26.83;;;;;;;10.11;69.90;100537.09;7710407;32;37952;-82
2023/01/02 16:29:22;;;;;;;54.40;26.35;;;;;;;9.91;70.32;100548.50;7711667;32;39309;-83
2023/01/02 16:33:40;;;;;;;62.33;27.27;;;;;;;9.88;70.89;100548.16;7710265;32;39921;-84
2023/01/02 16:37:58;;;;;;;61.67;25.90;;;;;;;9.80;71.25;100551.34;7710380;32;38075;-84
2023/01/02 16:42:36;;;;;;;61.53;25.67;;;;;;;9.93;71.03;100550.97;7711529;32;36450;-83
2023/01/02 16:46:52;;;;;;;63.28;25.98;;;;;;;10.05;70.75;100554.41;7711545;32;40084;-84
2023/01/02 16:51:08;;;;;;;62.83;27.05;;;;;;;10.12;70.69;100554.25;7706554;32;39987;-83
2023/01/02 16:55:25;;;;;;;64.65;28.17;;;;;;;9.98;71.15;100552.97;7709030;32;38714;-84
2023/01/02 16:59:41;;;;;;;67.78;28.15;;;;;;;10.04;70.89;100550.06;7709121;32;37127;-84
2023/01/02 17:03:58;;;;;;;66.32;27.33;;;;;;;10.06;70.84;100549.81;7707350;32;39638;-85
2023/01/02 17:08:18;;;;;;;62.28;27.35;;;;;;;10.30;69.49;100555.87;7707826;32;38904;-83
2023/01/02 17:12:36;;;;;;;59.15;27.13;;;;;;;10.51;69.07;100557.00;7706858;32;38849;-85
2023/01/02 17:16:58;;;;;;;62.60;28.30;;;;;;;10.06;70.60;100560.72;7707243;32;37171;-83
2023/01/02 17:21:15;;;;;;;58.78;26.67;;;;;;;10.33;69.73;100566.28;7708961;32;37948;-83
2023/01/02 17:25:31;;;;;;;60.25;26.55;;;;;;;10.41;69.09;100560.41;7708602;32;39880;-83
2023/01/02 17:29:47;;;;;;;61.37;26.58;;;;;;;10.18;69.42;100557.91;7708601;32;38443;-82
2023/01/02 17:34:03;;;;;;;64.75;27.33;;;;;;;10.37;69.11;100555.75;7707574;32;35512;-83
2023/01/02 17:38:20;;;;;;;57.58;25.37;;;;;;;10.31;68.87;100558.41;7708297;32;39230;-84
2023/01/02 17:42:39;;;;;;;61.90;27.30;;;;;;;9.87;70.26;100565.59;7706204;32;40956;-84
2023/01/02 17:46:55;;;;;;;57.13;24.55;;;;;;;10.35;69.05;100564.16;7695695;32;37882;-84
2023/01/02 17:51:32;;;;;;;56.25;24.63;;;;;;;9.87;70.85;100573.78;7708281;32;36576;-84
2023/01/02 17:55:52;;;;;;;56.90;25.83;;;;;;;10.34;69.32;100563.31;7707679;32;39952;-83
2023/01/02 18:00:30;;;;;;;58.80;25.90;;;;;;;10.08;70.06;100575.72;7708170;32;41375;-84
2023/01/02 18:04:47;;;;;;;54.42;25.70;;;;;;;10.21;69.75;100568.28;7709881;32;37963;-85
2023/01/02 18:09:10;;;;;;;61.88;28.35;;;;;;;10.15;69.80;100564.66;7707336;32;37149;-84
2023/01/02 18:13:31;;;;;;;58.33;27.20;;;;;;;10.18;69.89;100571.53;7709566;32;40025;-84
2023/01/02 18:17:51;;;;;;;;;;;;;;;10.59;68.39;100563.91;7710243;32;39910;-82
2023/01/02 18:22:16;;;;;;;58.20;25.62;;;;;;;10.42;68.92;100562.09;7712810;32;38962;-85
2023/01/02 18:26:42;;;;;;;62.50;28.80;;;;;;;10.36;69.17;100557.62;7712212;32;38304;-83
2023/01/02 18:30:58;;;;;;;59.45;25.70;;;;;;;10.41;69.38;100562.31;7710844;32;39293;-85
2023/01/02 18:35:21;;;;;;;62.67;27.37;;;;;;;10.27;69.61;100556.38;7703943;32;40764;-84
2023/01/02 18:39:59;;;;;;;56.05;25.95;;;;;;;9.78;71.41;100563.28;7706353;32;39311;-85
2023/01/02 18:44:27;;;;;;;52.85;23.08;;;;;;;10.06;70.62;100560.72;7703722;32;37615;-84
2023/01/02 18:48:44;;;;;;;50.55;23.98;;;;;;;10.09;71.25;100554.75;7693476;32;38877;-84
2023/01/02 18:53:22;;;;;;;48.10;22.75;;;;;;;10.35;70.07;100564.16;7685683;32;40024;-84
2023/01/02 18:58:00;;;;;;;45.88;22.65;;;;;;;10.27;70.59;100570.00;7708967;32;38083;-84
2023/01/02 19:02:51;;;;;;;48.95;22.90;;;;;;;10.29;70.62;100565.94;7712414;32;37894;-84
2023/01/02 19:07:27;;;;;;;47.05;21.58;;;;;;;10.50;69.63;100572.56;7711457;32;40475;-85
2023/01/02 19:16:35;;;;;;;55.12;24.52;;;;;;;10.32;70.24;100564.66;7646162;32;38659;-84
2023/01/02 19:21:18;;;;;;;48.95;24.35;;;;;;;10.45;70.18;100571.63;7684726;32;37214;-84
2023/01/02 19:25:34;;;;;;;46.97;24.23;;;;;;;10.61;69.71;100561.78;7684118;32;39856;-83
2023/01/02 19:29:51;;;;;;;55.42;24.58;;;;;;;10.61;69.76;100567.25;7701543;32;40799;-83
2023/01/02 19:34:39;;;;;;;50.50;24.40;;;;;;;10.55;69.88;100568.25;7709681;32;37840;-84
2023/01/02 19:38:55;;;;;;;53.05;25.70;;;;;;;10.69;69.65;100575.81;7694329;32;37014;-84
2023/01/02 19:43:12;;;;;;;56.92;25.42;;;;;;;10.70;69.05;100569.25;7710105;32;39342;-84
2023/01/02 19:47:31;;;;;;;54.83;25.83;;;;;;;10.55;69.95;100574.50;7706871;32;40614;-85
2023/01/02 19:51:47;;;;;;;51.95;24.20;;;;;;;10.70;69.23;100571.97;7709672;32;37843;-85
2023/01/02 19:56:04;;;;;;;53.75;24.33;;;;;;;10.66;69.22;100575.47;7711142;32;36927;-85
2023/01/02 20:00:20;;;;;;;54.67;25.83;;;;;;;10.86;69.07;100585.81;7696964;32;39281;-84
2023/01/02 20:04:36;;;;;;;53.25;24.80;;;;;;;10.75;69.21;100578.59;7711194;32;39974;-84
2023/01/02 20:08:53;;;;;;;57.13;25.95;;;;;;;10.75;69.34;100576.69;7710925;32;37979;-84